createdAt,value
2019-06-01T00:01:51.664Z,21.82
2019-06-01T00:04:22.996Z,26.15
2019-06-01T00:06:54.149Z,20.20
2019-06-01T00:09:25.340Z,23.90
2019-06-01T00:11:56.541Z,21.75
2019-06-01T00:14:27.745Z,22.02
2019-06-01T00:16:59.001Z,19.50
2019-06-01T00:19:30.188Z,23.15
2019-06-01T00:22:01.413Z,27.67
2019-06-01T00:24:32.633Z,22.00
2019-06-01T00:27:03.881Z,19.82
2019-06-01T00:29:35.072Z,19.82
2019-06-01T00:32:06.334Z,20.60
2019-06-01T00:34:37.530Z,25.05
2019-06-01T00:37:08.681Z,23.87
2019-06-01T00:39:39.908Z,21.33
2019-06-01T00:42:11.097Z,20.37
2019-06-01T00:44:42.370Z,21.33
2019-06-01T00:47:13.635Z,23.90
2019-06-01T00:49:44.834Z,20.20
2019-06-01T00:52:16.038Z,22.60
2019-06-01T00:54:47.392Z,25.88
2019-06-01T00:57:22.130Z,21.87
2019-06-01T00:59:54.629Z,22.75
2019-06-01T01:02:25.436Z,27.00
2019-06-01T01:05:06.302Z,22.10
2019-06-01T01:07:38.306Z,24.35
2019-06-01T01:10:09.597Z,22.27
2019-06-01T01:12:58.775Z,25.43
2019-06-01T01:15:29.983Z,23.35
2019-06-01T01:18:01.278Z,24.85
2019-06-01T01:20:32.557Z,25.45
2019-06-01T01:23:03.801Z,25.32
2019-06-01T01:25:35.121Z,23.80
2019-06-01T01:28:06.399Z,23.67
2019-06-01T01:30:37.559Z,25.70
2019-06-01T01:33:08.759Z,22.98
2019-06-01T01:35:39.972Z,27.17
2019-06-01T01:38:13.245Z,23.32
2019-06-01T01:40:44.427Z,22.98
2019-06-01T01:43:15.651Z,24.20
2019-06-01T01:45:46.837Z,23.07
2019-06-01T01:48:18.041Z,23.70
2019-06-01T01:50:50.235Z,21.23
2019-06-01T01:53:21.600Z,21.00
2019-06-01T01:55:52.976Z,21.55
2019-06-01T01:58:24.368Z,22.00
2019-06-01T02:00:56.815Z,23.02
2019-06-01T02:03:28.512Z,23.02
2019-06-01T02:05:59.760Z,23.25
2019-06-01T02:08:38.611Z,25.75
2019-06-01T02:11:10.022Z,22.93
2019-06-01T02:13:41.367Z,20.57
2019-06-01T02:16:13.201Z,19.98
2019-06-01T02:18:44.591Z,22.98
2019-06-01T02:21:15.944Z,20.55
2019-06-01T02:23:47.244Z,24.50
2019-06-01T02:26:18.627Z,18.52
2019-06-01T02:28:50.031Z,21.68
2019-06-01T02:31:37.474Z,19.25
2019-06-01T02:33:56.125Z,19.75
2019-06-01T02:36:58.383Z,21.27
2019-06-01T02:43:01.508Z,20.20
2019-06-01T02:45:33.239Z,20.88
2019-06-01T02:48:07.022Z,18.60
2019-06-01T02:50:38.361Z,21.45
2019-06-01T02:53:09.809Z,20.15
2019-06-01T02:55:41.177Z,19.10
2019-06-01T02:58:12.572Z,19.45
2019-06-01T03:01:29.318Z,17.50
2019-06-01T03:04:01.357Z,19.67
2019-06-01T03:06:33.321Z,18.60
2019-06-01T03:09:08.861Z,16.42
2019-06-01T03:11:41.211Z,18.80
2019-06-01T03:14:13.279Z,19.82
2019-06-01T03:16:44.655Z,18.02
2019-06-01T03:19:17.700Z,18.30
2019-06-01T03:21:50.843Z,17.98
2019-06-01T03:24:26.131Z,19.57
2019-06-01T03:26:57.522Z,18.50
2019-06-01T03:29:31.430Z,20.00
2019-06-01T03:32:24.089Z,21.70
2019-06-01T03:34:35.709Z,18.45
2019-06-01T03:37:07.149Z,20.43
2019-06-01T03:39:38.684Z,21.02
2019-06-01T03:42:11.610Z,20.45
2019-06-01T03:44:42.921Z,19.32
2019-06-01T03:47:14.252Z,20.52
2019-06-01T03:49:45.522Z,21.12
2019-06-01T03:52:16.958Z,25.15
2019-06-01T03:54:48.750Z,19.40
2019-06-01T03:57:20.132Z,22.75
2019-06-01T03:59:51.514Z,18.95
2019-06-01T04:02:32.826Z,20.20
2019-06-01T04:04:56.978Z,22.20
2019-06-01T04:07:28.300Z,23.20
2019-06-01T04:09:59.624Z,20.72
2019-06-01T04:12:31.046Z,22.20
2019-06-01T04:15:08.419Z,20.48
2019-06-01T04:17:35.593Z,17.67
2019-06-01T04:20:08.193Z,19.55
2019-06-01T04:22:39.627Z,19.57
2019-06-01T04:25:12.224Z,19.25
2019-06-01T04:27:44.605Z,20.23
2019-06-01T04:30:15.986Z,20.10
2019-06-01T04:32:50.355Z,19.50
2019-06-01T04:35:20.382Z,22.75
2019-06-01T04:37:51.858Z,16.77
2019-06-01T04:40:23.207Z,18.75
2019-06-01T04:42:54.494Z,16.97
2019-06-01T04:45:25.814Z,18.25
2019-06-01T04:47:57.150Z,16.70
2019-06-01T04:50:28.458Z,16.85
2019-06-01T04:52:59.999Z,18.30
2019-06-01T04:55:31.349Z,19.42
2019-06-01T04:58:02.684Z,15.70
2019-06-01T05:00:34.135Z,18.82
2019-06-01T05:03:08.729Z,17.17
2019-06-01T05:05:39.560Z,17.32
2019-06-01T05:08:12.562Z,16.85
2019-06-01T05:10:43.939Z,15.40
2019-06-01T05:13:15.709Z,15.85
2019-06-01T05:15:47.401Z,15.08
2019-06-01T05:18:19.720Z,15.80
2019-06-01T05:20:51.247Z,15.45
2019-06-01T05:23:22.759Z,16.25
2019-06-01T05:25:54.107Z,15.28
2019-06-01T05:28:25.535Z,15.88
2019-06-01T05:30:56.833Z,15.20
2019-06-01T05:33:36.839Z,16.52
2019-06-01T05:36:01.239Z,14.90
2019-06-01T05:38:32.742Z,14.58
2019-06-01T05:41:04.104Z,15.30
2019-06-01T05:43:35.497Z,15.05
2019-06-01T05:46:06.824Z,14.53
2019-06-01T05:48:38.098Z,18.52
2019-06-01T05:51:12.522Z,15.15
2019-06-01T05:53:42.454Z,13.80
2019-06-01T05:56:14.748Z,16.40
2019-06-01T05:58:46.387Z,15.88
2019-06-01T06:01:19.657Z,14.45
2019-06-01T06:03:50.720Z,13.78
2019-06-01T06:06:22.177Z,13.90
2019-06-01T06:08:53.525Z,14.35
2019-06-01T06:11:24.804Z,14.68
2019-06-01T06:13:57.987Z,13.78
2019-06-01T06:16:29.394Z,21.15
2019-06-01T06:19:00.717Z,17.05
2019-06-01T06:21:32.019Z,14.63
2019-06-01T06:24:03.315Z,15.30
2019-06-01T06:26:34.641Z,20.75
2019-06-01T06:29:06.067Z,15.90
2019-06-01T06:31:37.474Z,17.87
2019-06-01T06:34:08.886Z,19.05
2019-06-01T06:36:40.227Z,17.50
2019-06-01T06:39:11.640Z,19.85
2019-06-01T06:41:43.097Z,17.95
2019-06-01T06:44:14.672Z,16.50
2019-06-01T06:46:47.815Z,14.25
2019-06-01T06:49:19.261Z,17.27
2019-06-01T06:51:50.657Z,16.65
2019-06-01T06:54:22.022Z,13.88
2019-06-01T06:56:53.393Z,13.75
2019-06-01T06:59:24.692Z,13.95
2019-06-01T07:01:56.179Z,13.48
2019-06-01T07:04:27.601Z,12.88
2019-06-01T07:06:58.986Z,13.53
2019-06-01T07:09:30.324Z,14.73
2019-06-01T07:12:02.521Z,11.95
2019-06-01T07:14:34.910Z,14.40
2019-06-01T07:17:06.370Z,13.45
2019-06-01T07:19:37.720Z,13.55
2019-06-01T07:22:09.179Z,14.18
2019-06-01T07:24:40.512Z,14.58
2019-06-01T07:27:11.828Z,17.15
2019-06-01T07:29:43.203Z,14.25
2019-06-01T07:32:14.538Z,13.13
2019-06-01T07:34:46.504Z,11.90
2019-06-01T07:37:17.886Z,10.95
2019-06-01T07:39:49.244Z,12.13
2019-06-01T07:42:24.498Z,12.50
2019-06-01T07:44:53.600Z,13.50
2019-06-01T07:47:25.064Z,11.18
2019-06-01T07:49:56.451Z,11.15
2019-06-01T07:52:28.282Z,9.58
2019-06-01T07:54:59.740Z,10.78
2019-06-01T07:57:31.775Z,9.83
2019-06-01T08:00:03.207Z,10.78
2019-06-01T08:02:34.830Z,10.05
2019-06-01T08:05:06.639Z,14.38
2019-06-01T08:07:38.143Z,8.50
2019-06-01T08:10:09.625Z,8.80
2019-06-01T08:12:40.790Z,9.20
2019-06-01T08:15:12.173Z,13.30
2019-06-01T08:17:43.575Z,9.95
2019-06-01T08:20:14.843Z,9.23
2019-06-01T08:22:46.087Z,8.10
2019-06-01T08:25:17.400Z,6.87
2019-06-01T08:27:48.700Z,7.05
2019-06-01T08:30:19.909Z,6.05
2019-06-01T08:32:51.214Z,8.35
2019-06-01T08:35:22.903Z,6.37
2019-06-01T08:37:54.232Z,5.20
2019-06-01T08:40:25.498Z,6.80
2019-06-01T08:42:57.794Z,8.10
2019-06-01T08:45:29.673Z,6.53
2019-06-01T08:48:01.092Z,7.80
2019-06-01T08:50:32.343Z,6.40
2019-06-01T08:53:03.666Z,5.58
2019-06-01T08:55:35.013Z,6.47
2019-06-01T08:58:06.636Z,7.83
2019-06-01T09:00:37.866Z,6.42
2019-06-01T09:03:09.107Z,7.42
2019-06-01T09:05:40.475Z,5.25
2019-06-01T09:08:11.800Z,5.12
2019-06-01T09:10:42.983Z,5.10
2019-06-01T09:13:14.197Z,5.87
2019-06-01T09:15:45.424Z,4.65
2019-06-01T09:18:16.678Z,5.25
2019-06-01T09:20:48.064Z,5.72
2019-06-01T09:23:19.411Z,5.45
2019-06-01T09:25:50.765Z,5.50
2019-06-01T09:28:22.030Z,6.12
2019-06-01T09:30:53.254Z,5.97
2019-06-01T09:33:24.492Z,5.35
2019-06-01T09:35:56.551Z,4.90
2019-06-01T09:38:28.031Z,4.72
2019-06-01T09:41:00.458Z,6.60
2019-06-01T09:43:32.803Z,5.05
2019-06-01T09:46:04.036Z,5.15
2019-06-01T09:48:35.703Z,7.60
2019-06-01T09:51:07.106Z,5.58
2019-06-01T09:53:38.334Z,5.75
2019-06-01T09:56:09.530Z,5.03
2019-06-01T09:58:40.984Z,5.03
2019-06-01T10:01:12.338Z,5.35
2019-06-01T10:03:43.767Z,6.37
2019-06-01T10:06:15.051Z,5.58
2019-06-01T10:08:46.349Z,7.45
2019-06-01T10:11:17.668Z,7.95
2019-06-01T10:13:48.934Z,5.72
2019-06-01T10:16:21.226Z,5.78
2019-06-01T10:18:52.412Z,4.78
2019-06-01T10:21:23.671Z,5.37
2019-06-01T10:23:54.995Z,5.65
2019-06-01T10:26:26.209Z,5.22
2019-06-01T10:28:57.386Z,5.15
2019-06-01T10:31:28.618Z,5.80
2019-06-01T10:33:59.882Z,5.95
2019-06-01T10:36:31.921Z,5.42
2019-06-01T10:39:03.738Z,5.87
2019-06-01T10:41:35.322Z,4.65
2019-06-01T10:44:07.043Z,4.87
2019-06-01T10:46:38.212Z,4.53
2019-06-01T10:49:09.444Z,5.22
2019-06-01T10:51:40.627Z,5.67
2019-06-01T10:54:12.002Z,6.22
2019-06-01T10:56:43.233Z,5.20
2019-06-01T10:59:14.739Z,6.10
2019-06-01T11:01:45.960Z,6.22
2019-06-01T11:04:17.771Z,5.65
2019-06-01T11:06:49.439Z,6.10
2019-06-01T11:09:20.842Z,6.95
2019-06-01T11:11:52.021Z,5.12
2019-06-01T11:14:23.252Z,4.92
2019-06-01T11:16:56.452Z,5.05
2019-06-01T11:19:27.568Z,6.87
2019-06-01T11:21:58.718Z,5.33
2019-06-01T11:24:29.905Z,4.92
2019-06-01T11:27:01.070Z,4.50
2019-06-01T11:29:34.550Z,4.67
2019-06-01T11:32:05.119Z,4.65
2019-06-01T11:34:36.612Z,5.90
2019-06-01T11:37:08.443Z,5.08
2019-06-01T11:39:40.579Z,7.70
2019-06-01T11:42:12.893Z,5.15
2019-06-01T11:44:44.919Z,5.00
2019-06-01T11:47:16.301Z,4.85
2019-06-01T11:49:47.568Z,6.25
2019-06-01T11:52:18.758Z,3.92
2019-06-01T11:54:49.970Z,5.05
2019-06-01T11:57:21.142Z,4.05
2019-06-01T11:59:52.370Z,4.22
2019-06-01T12:02:23.664Z,4.90
2019-06-01T12:04:55.805Z,4.42
2019-06-01T12:07:27.053Z,4.25
2019-06-01T12:09:58.286Z,4.87
2019-06-01T12:12:29.513Z,5.47
2019-06-01T12:15:00.680Z,4.10
2019-06-01T12:17:31.850Z,4.45
2019-06-01T12:20:03.073Z,4.35
2019-06-01T12:22:34.232Z,4.28
2019-06-01T12:25:05.794Z,3.75
2019-06-01T12:27:39.408Z,3.98
2019-06-01T12:30:11.328Z,4.35
2019-06-01T12:32:42.809Z,4.95
2019-06-01T12:35:15.870Z,4.12
2019-06-01T12:38:02.771Z,3.47
2019-06-01T12:40:20.246Z,3.80
2019-06-01T12:42:52.009Z,3.65
2019-06-01T12:45:23.567Z,3.15
2019-06-01T12:47:58.363Z,3.37
2019-06-01T12:50:27.731Z,3.45
2019-06-01T12:52:58.915Z,3.33
2019-06-01T12:55:30.139Z,4.03
2019-06-01T12:58:01.383Z,3.77
2019-06-01T13:00:32.582Z,3.77
2019-06-01T13:03:07.663Z,4.08
2019-06-01T13:05:36.970Z,3.52
2019-06-01T13:08:08.165Z,3.30
2019-06-01T13:10:39.528Z,3.40
2019-06-01T13:13:10.762Z,3.35
2019-06-01T13:15:43.229Z,4.92
2019-06-01T13:18:14.540Z,3.20
2019-06-01T13:20:45.805Z,3.70
2019-06-01T13:23:16.984Z,3.75
2019-06-01T13:25:48.169Z,3.12
2019-06-01T13:28:19.464Z,3.58
2019-06-01T13:30:51.133Z,3.22
2019-06-01T13:33:22.821Z,3.75
2019-06-01T13:35:53.984Z,3.72
2019-06-01T13:38:25.248Z,3.40
2019-06-01T13:40:56.455Z,3.42
2019-06-01T13:43:27.639Z,3.00
2019-06-01T13:45:58.878Z,3.52
2019-06-01T13:48:30.067Z,3.10
2019-06-01T13:51:01.227Z,3.25
2019-06-01T13:53:32.457Z,3.10
2019-06-01T13:56:03.615Z,3.27
2019-06-01T13:58:35.884Z,3.47
2019-06-01T14:01:07.070Z,3.35
2019-06-01T14:03:40.166Z,3.20
2019-06-01T14:06:11.377Z,4.47
2019-06-01T14:08:42.680Z,3.05
2019-06-01T14:11:13.866Z,3.98
2019-06-01T14:13:45.366Z,3.27
2019-06-01T14:16:16.578Z,3.37
2019-06-01T14:18:47.899Z,2.95
2019-06-01T14:21:19.089Z,3.67
2019-06-01T14:23:51.878Z,3.37
2019-06-01T14:26:23.192Z,4.40
2019-06-01T14:28:54.461Z,3.00
2019-06-01T14:31:25.740Z,3.20
2019-06-01T14:33:57.148Z,3.83
2019-06-01T14:36:28.619Z,3.42
2019-06-01T14:39:00.314Z,2.55
2019-06-01T14:41:32.031Z,2.98
2019-06-01T14:44:03.271Z,2.60
2019-06-01T14:46:52.470Z,2.70
2019-06-01T14:49:08.774Z,4.17
2019-06-01T14:51:40.118Z,2.45
2019-06-01T14:54:11.364Z,2.58
2019-06-01T14:56:42.787Z,2.83
2019-06-01T14:59:14.065Z,2.47
2019-06-01T15:01:45.494Z,2.33
2019-06-01T15:04:17.912Z,2.30
2019-06-01T15:06:50.222Z,2.10
2019-06-01T15:09:21.599Z,2.50
2019-06-01T15:11:52.802Z,2.40
2019-06-01T15:14:24.069Z,2.60
2019-06-01T15:16:57.922Z,2.20
2019-06-01T15:19:29.715Z,2.00
2019-06-01T15:22:01.035Z,2.60
2019-06-01T15:24:32.361Z,2.35
2019-06-01T15:27:03.604Z,2.27
2019-06-01T15:29:35.058Z,2.72
2019-06-01T15:32:06.246Z,2.15
2019-06-01T15:34:37.650Z,2.70
2019-06-01T15:37:09.608Z,2.70
2019-06-01T15:39:41.084Z,2.58
2019-06-01T15:42:12.305Z,2.27
2019-06-01T15:44:43.594Z,2.77
2019-06-01T15:47:14.727Z,2.30
2019-06-01T15:49:48.166Z,1.98
2019-06-01T15:52:19.749Z,2.40
2019-06-01T15:54:52.116Z,3.30
2019-06-01T15:57:25.410Z,2.45
2019-06-01T15:59:57.020Z,2.25
2019-06-01T16:02:28.391Z,2.42
2019-06-01T16:05:01.237Z,2.20
2019-06-01T16:07:32.665Z,2.05
2019-06-01T16:10:07.601Z,1.85
2019-06-01T16:12:38.490Z,2.02
2019-06-01T16:15:11.044Z,1.95
2019-06-01T16:17:42.375Z,2.00
2019-06-01T16:20:13.952Z,2.12
2019-06-01T16:22:45.227Z,2.35
2019-06-01T16:25:19.176Z,1.90
2019-06-01T16:27:50.616Z,2.50
2019-06-01T16:30:22.069Z,2.95
2019-06-01T16:32:54.676Z,2.27
2019-06-01T16:35:26.118Z,2.02
2019-06-01T16:37:58.917Z,2.02
2019-06-01T16:40:30.724Z,2.20
2019-06-01T16:43:01.961Z,2.80
2019-06-01T16:45:33.363Z,2.30
2019-06-01T16:48:06.404Z,3.00
2019-06-01T16:50:39.240Z,3.00
2019-06-01T16:53:10.716Z,2.35
2019-06-01T16:55:42.008Z,3.58
2019-06-01T16:58:13.353Z,2.45
2019-06-01T17:00:44.725Z,2.12
2019-06-01T17:03:16.525Z,2.52
2019-06-01T17:05:48.385Z,2.58
2019-06-01T17:08:20.465Z,2.90
2019-06-01T17:10:52.373Z,2.70
2019-06-01T17:13:26.920Z,2.90
2019-06-01T17:15:58.926Z,3.17
2019-06-01T17:18:31.407Z,2.77
2019-06-01T17:21:03.530Z,3.15
2019-06-01T17:23:34.853Z,3.02
2019-06-01T17:26:06.991Z,5.95
2019-06-01T17:28:38.937Z,5.10
2019-06-01T17:31:10.297Z,2.70
2019-06-01T17:33:41.590Z,3.10
2019-06-01T17:36:12.843Z,2.58
2019-06-01T17:38:44.082Z,2.98
2019-06-01T17:41:15.350Z,3.22
2019-06-01T17:43:46.827Z,2.75
2019-06-01T17:46:18.070Z,2.83
2019-06-01T17:48:49.334Z,3.20
2019-06-01T17:51:22.971Z,3.20
2019-06-01T17:53:54.832Z,2.70
2019-06-01T17:56:26.656Z,2.67
2019-06-01T17:58:58.244Z,3.02
2019-06-01T18:01:30.703Z,3.25
2019-06-01T18:04:02.019Z,2.65
2019-06-01T18:06:33.586Z,2.72
2019-06-01T18:09:06.085Z,2.42
2019-06-01T18:11:38.934Z,2.50
2019-06-01T18:14:10.813Z,2.42
2019-06-01T18:16:42.169Z,3.20
2019-06-01T18:19:13.577Z,7.50
2019-06-01T18:21:45.295Z,2.90
2019-06-01T18:24:17.592Z,3.25
2019-06-01T18:26:49.769Z,2.52
2019-06-01T18:29:22.194Z,3.20
2019-06-01T18:31:54.415Z,3.27
2019-06-01T18:34:25.707Z,3.33
2019-06-01T18:36:57.236Z,6.00
2019-06-01T18:39:28.452Z,5.05
2019-06-01T18:41:59.793Z,4.87
2019-06-01T18:44:31.117Z,5.30
2019-06-01T18:47:03.598Z,3.12
2019-06-01T18:49:34.961Z,5.35
2019-06-01T18:52:06.481Z,4.97
2019-06-01T18:54:37.990Z,5.53
2019-06-01T18:57:16.747Z,4.92
2019-06-01T18:59:42.154Z,4.30
2019-06-01T19:02:14.551Z,4.00
2019-06-01T19:04:45.776Z,4.65
2019-06-01T19:07:17.070Z,4.15
2019-06-01T19:09:48.276Z,4.30
2019-06-01T19:12:19.558Z,4.80
2019-06-01T19:14:50.817Z,4.35
2019-06-01T19:17:22.089Z,6.37
2019-06-01T19:19:53.424Z,7.22
2019-06-01T19:22:24.722Z,8.40
2019-06-01T19:24:55.966Z,4.20
2019-06-01T19:27:27.186Z,4.03
2019-06-01T19:29:59.571Z,5.05
2019-06-01T19:32:31.169Z,5.17
2019-06-01T19:35:02.550Z,4.65
2019-06-01T19:37:38.653Z,5.47
2019-06-01T19:40:09.417Z,4.72
2019-06-01T19:42:40.734Z,4.50
2019-06-01T19:45:22.589Z,4.15
2019-06-01T19:47:45.213Z,4.42
2019-06-01T19:50:18.397Z,6.20
2019-06-01T19:52:49.975Z,5.03
2019-06-01T19:55:21.219Z,6.28
2019-06-01T19:57:53.178Z,5.08
2019-06-01T20:00:24.523Z,5.15
2019-06-01T20:02:55.882Z,4.28
2019-06-01T20:05:27.179Z,4.33
2019-06-01T20:07:58.645Z,5.12
2019-06-01T20:10:29.918Z,4.50
2019-06-01T20:13:01.522Z,4.67
2019-06-01T20:15:32.852Z,4.80
2019-06-01T20:18:04.475Z,4.83
2019-06-01T20:20:35.822Z,5.03
2019-06-01T20:23:06.998Z,4.00
2019-06-01T20:25:38.140Z,4.08
2019-06-01T20:28:09.684Z,4.83
2019-06-01T20:30:40.953Z,4.12
2019-06-01T20:33:12.261Z,4.45
2019-06-01T20:35:43.618Z,4.37
2019-06-01T20:38:16.390Z,4.25
2019-06-01T20:40:47.993Z,4.15
2019-06-01T20:43:20.690Z,4.05
2019-06-01T20:45:56.675Z,5.58
2019-06-01T20:48:26.479Z,4.03
2019-06-01T20:50:58.839Z,4.50
2019-06-01T20:53:30.144Z,4.85
2019-06-01T20:56:01.360Z,5.47
2019-06-01T20:58:32.657Z,5.50
2019-06-01T21:01:03.940Z,5.40
2019-06-01T21:03:35.740Z,5.45
2019-06-01T21:06:07.109Z,6.53
2019-06-01T21:08:38.502Z,6.17
2019-06-01T21:11:10.199Z,7.80
2019-06-01T21:13:41.411Z,8.90
2019-06-01T21:16:12.620Z,5.50
2019-06-01T21:18:44.023Z,5.12
2019-06-01T21:21:16.326Z,5.83
2019-06-01T21:23:47.960Z,6.03
2019-06-01T21:26:19.223Z,11.30
2019-06-01T21:28:51.635Z,5.37
2019-06-01T21:31:23.254Z,6.28
2019-06-01T21:33:54.473Z,8.28
2019-06-01T21:36:25.881Z,5.30
2019-06-01T21:38:57.160Z,5.08
2019-06-01T21:41:28.360Z,5.10
2019-06-01T21:43:59.625Z,6.10
2019-06-01T21:46:30.900Z,6.50
2019-06-01T21:49:02.229Z,5.85
2019-06-01T21:51:33.495Z,6.10
2019-06-01T21:54:04.689Z,6.30
2019-06-01T21:56:35.860Z,7.40
2019-06-01T21:59:07.041Z,5.65
2019-06-01T22:01:38.476Z,5.78
2019-06-01T22:04:09.707Z,7.22
2019-06-01T22:06:41.021Z,6.17
2019-06-01T22:09:12.205Z,6.92
2019-06-01T22:11:43.453Z,6.62
2019-06-01T22:14:14.740Z,6.22
2019-06-01T22:16:45.970Z,6.58
2019-06-01T22:19:17.531Z,7.30
2019-06-01T22:21:49.002Z,6.72
2019-06-01T22:24:20.284Z,6.15
2019-06-01T22:26:51.593Z,6.67
2019-06-01T22:29:22.824Z,8.35
2019-06-01T22:31:53.979Z,8.30
2019-06-01T22:34:25.210Z,6.53
2019-06-01T22:36:56.429Z,6.78
2019-06-01T22:39:28.914Z,7.50
2019-06-01T22:42:00.260Z,8.03
2019-06-01T22:44:32.425Z,9.65
2019-06-01T22:47:03.706Z,8.20
2019-06-01T22:49:34.885Z,7.25
2019-06-01T22:52:06.092Z,8.88
2019-06-01T22:54:37.398Z,10.18
2019-06-01T22:57:08.620Z,11.22
2019-06-01T22:59:39.737Z,8.30
2019-06-01T23:02:12.207Z,10.28
2019-06-01T23:04:43.384Z,8.23
2019-06-01T23:07:14.648Z,8.43
2019-06-01T23:09:45.848Z,7.83
2019-06-01T23:12:17.033Z,8.13
2019-06-01T23:14:48.332Z,8.13
2019-06-01T23:17:19.604Z,7.72
2019-06-01T23:19:50.794Z,7.72
2019-06-01T23:22:21.973Z,7.70
2019-06-01T23:24:53.786Z,9.13
2019-06-01T23:27:25.852Z,7.70
2019-06-01T23:29:58.402Z,7.92
2019-06-01T23:32:30.685Z,9.80
2019-06-01T23:35:01.970Z,10.65
2019-06-01T23:37:33.283Z,12.60
2019-06-01T23:40:04.682Z,10.83
2019-06-01T23:42:35.931Z,9.85
2019-06-01T23:45:07.258Z,9.95
2019-06-01T23:47:38.486Z,8.70
2019-06-01T23:50:09.723Z,8.28
2019-06-01T23:52:40.882Z,8.43
2019-06-01T23:55:12.068Z,8.15
2019-06-01T23:57:43.212Z,8.68
